sensor_id;sensor_type;location;lat;lon;timestamp;pressure;altitude;pressure_sealevel;temperature;humidity
71559;BME280;59382;43.852;25.952;2024-03-08T00:01:50;101695.50;;;9.01;55.74
71559;BME280;59382;43.852;25.952;2024-03-08T00:04:17;101698.03;;;9.02;55.80
71559;BME280;59382;43.852;25.952;2024-03-08T00:06:42;101687.81;;;8.90;55.91
71559;BME280;59382;43.852;25.952;2024-03-08T00:09:11;101691.69;;;8.95;56.00
71559;BME280;59382;43.852;25.952;2024-03-08T00:11:37;101702.81;;;8.92;55.87
71559;BME280;59382;43.852;25.952;2024-03-08T00:14:03;101691.72;;;8.87;55.44
71559;BME280;59382;43.852;25.952;2024-03-08T00:16:32;101670.88;;;8.81;55.98
71559;BME280;59382;43.852;25.952;2024-03-08T00:18:58;101668.63;;;8.70;55.99
71559;BME280;59382;43.852;25.952;2024-03-08T00:21:23;101686.91;;;8.75;56.24
71559;BME280;59382;43.852;25.952;2024-03-08T00:23:49;101686.41;;;8.71;56.26
71559;BME280;59382;43.852;25.952;2024-03-08T00:26:15;101665.78;;;8.64;56.31
71559;BME280;59382;43.852;25.952;2024-03-08T00:28:40;101662.22;;;8.63;56.33
71559;BME280;59382;43.852;25.952;2024-03-08T00:31:06;101653.53;;;8.61;56.32
71559;BME280;59382;43.852;25.952;2024-03-08T00:33:32;101654.50;;;8.60;56.45
71559;BME280;59382;43.852;25.952;2024-03-08T00:35:58;101643.31;;;8.49;56.38
71559;BME280;59382;43.852;25.952;2024-03-08T00:38:23;101643.31;;;8.49;56.40
71559;BME280;59382;43.852;25.952;2024-03-08T00:40:49;101644.47;;;8.54;56.32
71559;BME280;59382;43.852;25.952;2024-03-08T00:43:14;101657.69;;;8.64;56.20
71559;BME280;59382;43.852;25.952;2024-03-08T00:45:41;101669.31;;;8.64;56.22
71559;BME280;59382;43.852;25.952;2024-03-08T00:48:09;101634.09;;;8.43;56.29
71559;BME280;59382;43.852;25.952;2024-03-08T00:50:36;101663.78;;;8.58;56.40
71559;BME280;59382;43.852;25.952;2024-03-08T00:53:02;101674.03;;;8.62;56.37
71559;BME280;59382;43.852;25.952;2024-03-08T00:55:27;101640.13;;;8.45;56.30
71559;BME280;59382;43.852;25.952;2024-03-08T00:57:56;101674.69;;;8.64;56.31
71559;BME280;59382;43.852;25.952;2024-03-08T01:00:22;101662.22;;;8.63;56.16
71559;BME280;59382;43.852;25.952;2024-03-08T01:02:47;101661.88;;;8.66;56.09
71559;BME280;59382;43.852;25.952;2024-03-08T01:05:13;101676.97;;;8.75;56.07
71559;BME280;59382;43.852;25.952;2024-03-08T01:07:39;101672.78;;;8.73;56.42
71559;BME280;59382;43.852;25.952;2024-03-08T01:10:05;101673.13;;;8.78;56.28
71559;BME280;59382;43.852;25.952;2024-03-08T01:12:35;101662.53;;;8.76;56.24
71559;BME280;59382;43.852;25.952;2024-03-08T01:15:00;101664.19;;;8.77;55.77
71559;BME280;59382;43.852;25.952;2024-03-08T01:17:26;101678.78;;;8.83;56.04
71559;BME280;59382;43.852;25.952;2024-03-08T01:19:52;101667.56;;;8.79;55.80
71559;BME280;59382;43.852;25.952;2024-03-08T01:22:19;101662.03;;;8.73;55.96
71559;BME280;59382;43.852;25.952;2024-03-08T01:24:44;101658.56;;;8.64;55.84
71559;BME280;59382;43.852;25.952;2024-03-08T01:27:10;101679.03;;;8.73;55.86
71559;BME280;59382;43.852;25.952;2024-03-08T01:29:37;101681.38;;;8.68;55.93
71559;BME280;59382;43.852;25.952;2024-03-08T01:32:03;101667.44;;;8.65;55.85
71559;BME280;59382;43.852;25.952;2024-03-08T01:34:28;101666.31;;;8.59;55.73
71559;BME280;59382;43.852;25.952;2024-03-08T01:36:54;101664.97;;;8.55;55.88
71559;BME280;59382;43.852;25.952;2024-03-08T01:39:21;101669.66;;;8.61;55.81
71559;BME280;59382;43.852;25.952;2024-03-08T01:41:47;101670.84;;;8.59;55.75
71559;BME280;59382;43.852;25.952;2024-03-08T01:44:13;101662.31;;;8.47;55.78
71559;BME280;59382;43.852;25.952;2024-03-08T01:46:44;101670.38;;;8.55;55.71
71559;BME280;59382;43.852;25.952;2024-03-08T01:49:11;101677.06;;;8.59;56.05
71559;BME280;59382;43.852;25.952;2024-03-08T01:51:37;101679.75;;;8.59;55.80
71559;BME280;59382;43.852;25.952;2024-03-08T01:54:04;101679.44;;;8.54;55.82
71559;BME280;59382;43.852;25.952;2024-03-08T01:56:30;101681.13;;;8.55;56.01
71559;BME280;59382;43.852;25.952;2024-03-08T01:58:57;101670.06;;;8.42;55.91
71559;BME280;59382;43.852;25.952;2024-03-08T02:01:24;101678.97;;;8.51;55.61
71559;BME280;59382;43.852;25.952;2024-03-08T02:03:50;101675.41;;;8.50;55.71
71559;BME280;59382;43.852;25.952;2024-03-08T02:06:16;101662.00;;;8.42;56.02
71559;BME280;59382;43.852;25.952;2024-03-08T02:08:45;101686.50;;;8.55;55.88
71559;BME280;59382;43.852;25.952;2024-03-08T02:11:12;101666.22;;;8.45;55.55
71559;BME280;59382;43.852;25.952;2024-03-08T02:13:37;101667.19;;;8.44;55.69
71559;BME280;59382;43.852;25.952;2024-03-08T02:16:03;101671.75;;;8.43;55.46
71559;BME280;59382;43.852;25.952;2024-03-08T02:18:30;101678.81;;;8.44;55.69
71559;BME280;59382;43.852;25.952;2024-03-08T02:20:57;101688.03;;;8.50;55.51
71559;BME280;59382;43.852;25.952;2024-03-08T02:23:23;101675.16;;;8.37;55.56
71559;BME280;59382;43.852;25.952;2024-03-08T02:25:53;101674.00;;;8.32;55.51
71559;BME280;59382;43.852;25.952;2024-03-08T02:28:19;101699.81;;;8.41;55.67
71559;BME280;59382;43.852;25.952;2024-03-08T02:30:46;101676.19;;;8.28;55.79
71559;BME280;59382;43.852;25.952;2024-03-08T02:33:13;101682.88;;;8.32;55.88
71559;BME280;59382;43.852;25.952;2024-03-08T02:35:43;101687.63;;;8.30;55.73
71559;BME280;59382;43.852;25.952;2024-03-08T02:38:15;101696.13;;;8.42;55.72
71559;BME280;59382;43.852;25.952;2024-03-08T02:40:42;101694.66;;;8.39;55.61
71559;BME280;59382;43.852;25.952;2024-03-08T02:43:09;101674.19;;;8.22;55.68
71559;BME280;59382;43.852;25.952;2024-03-08T02:45:35;101695.97;;;8.35;55.77
71559;BME280;59382;43.852;25.952;2024-03-08T02:48:00;101696.13;;;8.42;55.79
71559;BME280;59382;43.852;25.952;2024-03-08T02:50:26;101693.28;;;8.43;55.83
71559;BME280;59382;43.852;25.952;2024-03-08T02:52:51;101682.88;;;8.32;55.65
71559;BME280;59382;43.852;25.952;2024-03-08T02:55:17;101679.22;;;8.25;55.48
71559;BME280;59382;43.852;25.952;2024-03-08T02:57:43;101692.00;;;8.23;55.38
71559;BME280;59382;43.852;25.952;2024-03-08T03:00:09;101684.28;;;8.12;55.68
71559;BME280;59382;43.852;25.952;2024-03-08T03:02:36;101692.97;;;8.14;55.60
71559;BME280;59382;43.852;25.952;2024-03-08T03:05:02;101699.88;;;8.17;55.70
71559;BME280;59382;43.852;25.952;2024-03-08T03:07:33;101682.09;;;8.07;55.51
71559;BME280;59382;43.852;25.952;2024-03-08T03:09:59;101694.69;;;8.15;55.80
71559;BME280;59382;43.852;25.952;2024-03-08T03:12:28;101697.03;;;8.18;55.80
71559;BME280;59382;43.852;25.952;2024-03-08T03:14:53;101678.91;;;8.12;56.03
71559;BME280;59382;43.852;25.952;2024-03-08T03:17:19;101680.72;;;8.20;55.78
71559;BME280;59382;43.852;25.952;2024-03-08T03:19:45;101702.06;;;8.29;55.97
71559;BME280;59382;43.852;25.952;2024-03-08T03:22:12;101707.09;;;8.32;55.84
71559;BME280;59382;43.852;25.952;2024-03-08T03:24:38;101711.13;;;8.36;55.48
71559;BME280;59382;43.852;25.952;2024-03-08T03:27:04;101697.19;;;8.33;55.63
71559;BME280;59382;43.852;25.952;2024-03-08T03:29:39;101699.53;;;8.36;55.65
71559;BME280;59382;43.852;25.952;2024-03-08T03:32:14;101700.88;;;8.32;55.59
71559;BME280;59382;43.852;25.952;2024-03-08T03:34:40;101683.41;;;8.20;55.57
71559;BME280;59382;43.852;25.952;2024-03-08T03:37:07;101692.00;;;8.23;55.63
71559;BME280;59382;43.852;25.952;2024-03-08T03:39:34;101694.16;;;8.28;55.71
71559;BME280;59382;43.852;25.952;2024-03-08T03:42:00;101700.38;;;8.28;55.91
71559;BME280;59382;43.852;25.952;2024-03-08T03:44:30;101704.09;;;8.27;55.54
71559;BME280;59382;43.852;25.952;2024-03-08T03:46:55;101708.13;;;8.23;55.34
71559;BME280;59382;43.852;25.952;2024-03-08T03:49:21;101705.44;;;8.15;55.65
71559;BME280;59382;43.852;25.952;2024-03-08T03:51:46;101691.84;;;8.00;55.68
71559;BME280;59382;43.852;25.952;2024-03-08T03:54:12;101713.34;;;8.08;55.71
71559;BME280;59382;43.852;25.952;2024-03-08T03:56:38;101695.72;;;7.98;55.64
71559;BME280;59382;43.852;25.952;2024-03-08T03:59:05;101710.81;;;8.07;55.61
71559;BME280;59382;43.852;25.952;2024-03-08T04:01:32;101717.56;;;8.03;55.72
71559;BME280;59382;43.852;25.952;2024-03-08T04:03:57;101725.63;;;8.03;55.50
71559;BME280;59382;43.852;25.952;2024-03-08T04:06:23;101706.84;;;7.87;55.49
71559;BME280;59382;43.852;25.952;2024-03-08T04:08:49;101725.97;;;7.92;55.84
71559;BME280;59382;43.852;25.952;2024-03-08T04:11:15;101712.56;;;7.84;55.59
71559;BME280;59382;43.852;25.952;2024-03-08T04:13:42;101728.66;;;7.92;55.54
71559;BME280;59382;43.852;25.952;2024-03-08T04:16:08;101709.53;;;7.79;55.69
71559;BME280;59382;43.852;25.952;2024-03-08T04:18:34;101707.50;;;7.81;55.65
71559;BME280;59382;43.852;25.952;2024-03-08T04:21:02;101726.63;;;7.86;55.75
71559;BME280;59382;43.852;25.952;2024-03-08T04:23:28;101732.00;;;7.86;55.86
71559;BME280;59382;43.852;25.952;2024-03-08T04:25:54;101719.59;;;7.85;55.79
71559;BME280;59382;43.852;25.952;2024-03-08T04:28:19;101720.94;;;7.81;55.88
71559;BME280;59382;43.852;25.952;2024-03-08T04:30:45;101668.56;;;7.45;56.00
71559;BME280;59382;43.852;25.952;2024-03-08T04:33:11;101727.31;;;7.80;56.09
71559;BME280;59382;43.852;25.952;2024-03-08T04:35:37;101711.72;;;7.67;55.95
71559;BME280;59382;43.852;25.952;2024-03-08T04:38:02;101710.88;;;7.67;56.17
71559;BME280;59382;43.852;25.952;2024-03-08T04:40:30;101714.56;;;7.66;56.13
71559;BME280;59382;43.852;25.952;2024-03-08T04:42:57;101727.97;;;7.74;56.17
71559;BME280;59382;43.852;25.952;2024-03-08T04:45:24;101735.06;;;7.75;56.62
71559;BME280;59382;43.852;25.952;2024-03-08T04:47:51;101733.03;;;7.77;56.24
71559;BME280;59382;43.852;25.952;2024-03-08T04:50:18;101717.09;;;7.67;56.10
71559;BME280;59382;43.852;25.952;2024-03-08T04:52:43;101729.69;;;7.75;56.11
71559;BME280;59382;43.852;25.952;2024-03-08T04:55:09;101730.03;;;7.72;56.16
71559;BME280;59382;43.852;25.952;2024-03-08T04:57:35;101729.00;;;7.65;56.32
71559;BME280;59382;43.852;25.952;2024-03-08T05:00:04;101736.88;;;7.66;56.08
71559;BME280;59382;43.852;25.952;2024-03-08T05:02:39;101729.31;;;7.62;56.18
71559;BME280;59382;43.852;25.952;2024-03-08T05:05:05;101736.06;;;7.66;56.31
71559;BME280;59382;43.852;25.952;2024-03-08T05:07:37;101739.41;;;7.68;56.15
71559;BME280;59382;43.852;25.952;2024-03-08T05:10:02;101760.56;;;7.71;55.91
71559;BME280;59382;43.852;25.952;2024-03-08T05:12:28;101728.00;;;7.58;55.79
71559;BME280;59382;43.852;25.952;2024-03-08T05:14:54;101745.09;;;7.65;55.77
71559;BME280;59382;43.852;25.952;2024-03-08T05:17:20;101759.56;;;7.64;56.00
71559;BME280;59382;43.852;25.952;2024-03-08T05:19:46;101752.00;;;7.59;55.88
71559;BME280;59382;43.852;25.952;2024-03-08T05:22:11;101758.56;;;7.57;55.90
71559;BME280;59382;43.852;25.952;2024-03-08T05:24:37;101758.88;;;7.54;55.79
71559;BME280;59382;43.852;25.952;2024-03-08T05:27:03;101761.22;;;7.49;55.93
71559;BME280;59382;43.852;25.952;2024-03-08T05:29:29;101750.13;;;7.36;56.03
71559;BME280;59382;43.852;25.952;2024-03-08T05:31:55;101773.97;;;7.47;56.14
71559;BME280;59382;43.852;25.952;2024-03-08T05:34:22;101763.91;;;7.49;56.09
71559;BME280;59382;43.852;25.952;2024-03-08T05:36:48;101757.00;;;7.38;56.20
71559;BME280;59382;43.852;25.952;2024-03-08T05:39:17;101750.13;;;7.36;56.09
71559;BME280;59382;43.852;25.952;2024-03-08T05:41:43;101773.97;;;7.47;56.26
71559;BME280;59382;43.852;25.952;2024-03-08T05:44:10;101773.13;;;7.46;56.15
71559;BME280;59382;43.852;25.952;2024-03-08T05:46:36;101778.34;;;7.48;56.04
71559;BME280;59382;43.852;25.952;2024-03-08T05:49:06;101800.00;;;7.46;56.15
71559;BME280;59382;43.852;25.952;2024-03-08T05:51:36;101769.28;;;7.41;56.05
71559;BME280;59382;43.852;25.952;2024-03-08T05:54:09;101777.16;;;7.42;56.34
71559;BME280;59382;43.852;25.952;2024-03-08T05:56:36;101790.06;;;7.47;56.01
71559;BME280;59382;43.852;25.952;2024-03-08T05:59:02;101797.63;;;7.43;56.07
71559;BME280;59382;43.852;25.952;2024-03-08T06:01:28;101784.34;;;7.34;56.22
71559;BME280;59382;43.852;25.952;2024-03-08T06:03:55;101798.66;;;7.42;56.26
71559;BME280;59382;43.852;25.952;2024-03-08T06:06:23;101803.19;;;7.42;56.20
71559;BME280;59382;43.852;25.952;2024-03-08T06:08:49;101798.13;;;7.39;56.07
71559;BME280;59382;43.852;25.952;2024-03-08T06:11:15;101795.94;;;7.34;56.19
71559;BME280;59382;43.852;25.952;2024-03-08T06:13:43;101811.56;;;7.47;56.29
71559;BME280;59382;43.852;25.952;2024-03-08T06:16:08;101802.34;;;7.49;56.11
71559;BME280;59382;43.852;25.952;2024-03-08T06:18:35;101802.84;;;7.45;56.09
71559;BME280;59382;43.852;25.952;2024-03-08T06:21:05;101788.72;;;7.43;56.60
71559;BME280;59382;43.852;25.952;2024-03-08T06:23:32;101822.34;;;7.63;56.18
71559;BME280;59382;43.852;25.952;2024-03-08T06:25:57;101791.28;;;7.52;55.99
71559;BME280;59382;43.852;25.952;2024-03-08T06:28:23;101798.69;;;7.58;56.13
71559;BME280;59382;43.852;25.952;2024-03-08T06:30:49;101808.25;;;7.61;56.14
71559;BME280;59382;43.852;25.952;2024-03-08T06:33:16;101820.97;;;7.59;56.10
71559;BME280;59382;43.852;25.952;2024-03-08T06:35:41;101807.72;;;7.57;55.96
71559;BME280;59382;43.852;25.952;2024-03-08T06:38:07;101811.22;;;7.50;56.09
71559;BME280;59382;43.852;25.952;2024-03-08T06:40:32;101799.16;;;7.46;56.18
71559;BME280;59382;43.852;25.952;2024-03-08T06:42:58;101814.78;;;7.58;56.24
71559;BME280;59382;43.852;25.952;2024-03-08T06:45:23;101824.69;;;7.58;56.22
71559;BME280;59382;43.852;25.952;2024-03-08T06:47:49;101820.66;;;7.54;56.20
71559;BME280;59382;43.852;25.952;2024-03-08T06:50:15;101810.25;;;7.51;56.16
71559;BME280;59382;43.852;25.952;2024-03-08T06:52:41;101826.72;;;7.64;56.22
71559;BME280;59382;43.852;25.952;2024-03-08T06:55:12;101829.88;;;7.59;56.05
71559;BME280;59382;43.852;25.952;2024-03-08T06:57:40;101804.03;;;7.42;56.15
71559;BME280;59382;43.852;25.952;2024-03-08T07:00:07;101815.44;;;7.52;56.14
71559;BME280;59382;43.852;25.952;2024-03-08T07:02:41;101827.22;;;7.59;56.27
71559;BME280;59382;43.852;25.952;2024-03-08T07:05:07;101821.84;;;7.59;56.31
71559;BME280;59382;43.852;25.952;2024-03-08T07:07:36;101846.72;;;7.77;56.21
71559;BME280;59382;43.852;25.952;2024-03-08T07:10:01;101832.09;;;7.80;56.13
71559;BME280;59382;43.852;25.952;2024-03-08T07:12:27;101832.25;;;7.78;56.02
71559;BME280;59382;43.852;25.952;2024-03-08T07:14:52;101840.50;;;7.85;55.87
71559;BME280;59382;43.852;25.952;2024-03-08T07:17:18;101840.69;;;7.83;55.80
71559;BME280;59382;43.852;25.952;2024-03-08T07:19:44;101839.16;;;7.73;55.77
71559;BME280;59382;43.852;25.952;2024-03-08T07:22:10;101850.09;;;7.79;55.75
71559;BME280;59382;43.852;25.952;2024-03-08T07:24:39;101840.16;;;7.80;55.79
71559;BME280;59382;43.852;25.952;2024-03-08T07:27:14;101831.59;;;7.68;55.92
71559;BME280;59382;43.852;25.952;2024-03-08T07:29:39;101830.75;;;7.68;55.89
71559;BME280;59382;43.852;25.952;2024-03-08T07:32:05;101842.03;;;7.79;55.80
71559;BME280;59382;43.852;25.952;2024-03-08T07:34:49;101830.59;;;7.61;55.80
71559;BME280;59382;43.852;25.952;2024-03-08T07:37:18;101818.97;;;7.53;55.96
71559;BME280;59382;43.852;25.952;2024-03-08T07:39:46;101841.31;;;7.61;56.04
71559;BME280;59382;43.852;25.952;2024-03-08T07:42:11;101858.81;;;7.73;55.88
71559;BME280;59382;43.852;25.952;2024-03-08T07:44:39;101856.63;;;7.77;55.87
71559;BME280;59382;43.852;25.952;2024-03-08T07:47:05;101842.69;;;7.73;55.97
71559;BME280;59382;43.852;25.952;2024-03-08T07:49:37;101850.91;;;7.80;55.85
71559;BME280;59382;43.852;25.952;2024-03-08T07:52:04;101828.41;;;7.73;55.80
71559;BME280;59382;43.852;25.952;2024-03-08T07:54:30;101849.09;;;7.88;56.09
71559;BME280;59382;43.852;25.952;2024-03-08T07:56:56;101835.31;;;7.83;56.11
71559;BME280;59382;43.852;25.952;2024-03-08T07:59:22;101850.59;;;7.99;56.00
71559;BME280;59382;43.852;25.952;2024-03-08T08:01:47;101842.34;;;8.00;55.78
71559;BME280;59382;43.852;25.952;2024-03-08T08:04:13;101836.47;;;8.05;55.92
71559;BME280;59382;43.852;25.952;2024-03-08T08:06:40;101830.94;;;8.06;55.75
71559;BME280;59382;43.852;25.952;2024-03-08T08:09:08;101855.50;;;8.20;55.70
71559;BME280;59382;43.852;25.952;2024-03-08T08:11:54;101842.19;;;8.10;55.41
71559;BME280;59382;43.852;25.952;2024-03-08T08:14:20;101858.34;;;8.18;55.94
71559;BME280;59382;43.852;25.952;2024-03-08T08:16:46;101857.31;;;8.19;56.02
71559;BME280;59382;43.852;25.952;2024-03-08T08:19:14;101843.38;;;8.16;55.84
71559;BME280;59382;43.852;25.952;2024-03-08T08:21:41;101858.00;;;8.29;55.57
71559;BME280;59382;43.852;25.952;2024-03-08T08:24:06;101864.06;;;8.31;55.80
71559;BME280;59382;43.852;25.952;2024-03-08T08:26:33;101859.72;;;8.30;55.62
71559;BME280;59382;43.852;25.952;2024-03-08T08:28:59;101863.91;;;8.25;55.64
71559;BME280;59382;43.852;25.952;2024-03-08T08:31:25;101862.75;;;8.27;55.52
71559;BME280;59382;43.852;25.952;2024-03-08T08:33:50;101862.56;;;8.29;55.93
71559;BME280;59382;43.852;25.952;2024-03-08T08:36:19;101845.75;;;8.27;55.68
71559;BME280;59382;43.852;25.952;2024-03-08T08:38:44;101870.44;;;8.38;55.68
71559;BME280;59382;43.852;25.952;2024-03-08T08:41:11;101870.44;;;8.38;55.57
71559;BME280;59382;43.852;25.952;2024-03-08T08:43:36;101867.75;;;8.38;55.59
71559;BME280;59382;43.852;25.952;2024-03-08T08:46:02;101875.31;;;8.43;55.64
71559;BME280;59382;43.852;25.952;2024-03-08T08:48:28;101861.56;;;8.38;55.60
71559;BME280;59382;43.852;25.952;2024-03-08T08:50:54;101856.66;;;8.41;55.38
71559;BME280;59382;43.852;25.952;2024-03-08T08:53:20;101869.78;;;8.52;55.44
71559;BME280;59382;43.852;25.952;2024-03-08T08:55:47;101870.25;;;8.56;55.49
71559;BME280;59382;43.852;25.952;2024-03-08T08:58:13;101870.25;;;8.56;55.54
71559;BME280;59382;43.852;25.952;2024-03-08T09:00:39;101875.47;;;8.57;55.37
71559;BME280;59382;43.852;25.952;2024-03-08T09:03:04;101877.16;;;8.58;55.45
71559;BME280;59382;43.852;25.952;2024-03-08T09:05:32;101875.81;;;8.62;55.38
71559;BME280;59382;43.852;25.952;2024-03-08T09:07:59;101851.94;;;8.51;55.27
71559;BME280;59382;43.852;25.952;2024-03-08T09:10:25;101869.56;;;8.62;55.37
71559;BME280;59382;43.852;25.952;2024-03-08T09:12:50;101855.31;;;8.53;55.48
71559;BME280;59382;43.852;25.952;2024-03-08T09:15:16;101860.84;;;8.60;55.32
71559;BME280;59382;43.852;25.952;2024-03-08T09:17:46;101873.47;;;8.67;55.26
71559;BME280;59382;43.852;25.952;2024-03-08T09:20:12;101868.06;;;8.67;55.19
71559;BME280;59382;43.852;25.952;2024-03-08T09:22:43;101861.69;;;8.60;55.14
71559;BME280;59382;43.852;25.952;2024-03-08T09:25:09;101875.97;;;8.69;55.35
71559;BME280;59382;43.852;25.952;2024-03-08T09:27:35;101865.91;;;8.63;55.32
71559;BME280;59382;43.852;25.952;2024-03-08T09:30:01;101877.47;;;8.79;54.88
71559;BME280;59382;43.852;25.952;2024-03-08T09:32:26;101873.41;;;8.75;55.25
71559;BME280;59382;43.852;25.952;2024-03-08T09:34:52;101878.81;;;8.75;55.26
71559;BME280;59382;43.852;25.952;2024-03-08T09:37:17;101869.75;;;8.68;55.26
71559;BME280;59382;43.852;25.952;2024-03-08T09:39:44;101871.41;;;8.69;55.20
71559;BME280;59382;43.852;25.952;2024-03-08T09:42:10;101890.75;;;8.81;55.03
71559;BME280;59382;43.852;25.952;2024-03-08T09:44:46;101878.78;;;8.83;55.28
71559;BME280;59382;43.852;25.952;2024-03-08T09:47:15;101883.84;;;8.86;55.04
71559;BME280;59382;43.852;25.952;2024-03-08T09:49:42;101876.78;;;8.85;54.98
71559;BME280;59382;43.852;25.952;2024-03-08T09:52:08;101845.88;;;8.73;55.08
71559;BME280;59382;43.852;25.952;2024-03-08T09:54:35;101867.69;;;8.86;55.30
71559;BME280;59382;43.852;25.952;2024-03-08T09:57:03;101887.16;;;9.04;55.09
71559;BME280;59382;43.852;25.952;2024-03-08T09:59:29;101879.72;;;9.06;54.97
71559;BME280;59382;43.852;25.952;2024-03-08T10:02:15;101868.31;;;8.96;54.60
71559;BME280;59382;43.852;25.952;2024-03-08T10:04:41;101886.81;;;9.07;54.83
71559;BME280;59382;43.852;25.952;2024-03-08T10:07:12;101883.94;;;9.09;54.73
71559;BME280;59382;43.852;25.952;2024-03-08T10:09:38;101882.75;;;9.11;54.80
71559;BME280;59382;43.852;25.952;2024-03-08T10:12:05;101865.28;;;9.07;55.02
71559;BME280;59382;43.852;25.952;2024-03-08T10:14:30;101873.63;;;9.20;54.78
71559;BME280;59382;43.852;25.952;2024-03-08T10:16:59;101851.31;;;9.04;54.48
71559;BME280;59382;43.852;25.952;2024-03-08T10:19:27;101878.69;;;9.15;55.05
71559;BME280;59382;43.852;25.952;2024-03-08T10:21:55;101889.09;;;9.18;54.84
71559;BME280;59382;43.852;25.952;2024-03-08T10:24:24;101887.44;;;9.17;54.84
71559;BME280;59382;43.852;25.952;2024-03-08T10:26:53;101870.31;;;9.10;54.63
71559;BME280;59382;43.852;25.952;2024-03-08T10:29:23;101885.78;;;9.16;54.56
71559;BME280;59382;43.852;25.952;2024-03-08T10:31:49;101871.00;;;9.04;54.80
71559;BME280;59382;43.852;25.952;2024-03-08T10:34:16;101881.72;;;9.12;54.98
71559;BME280;59382;43.852;25.952;2024-03-08T10:36:41;101879.72;;;9.14;54.74
71559;BME280;59382;43.852;25.952;2024-03-08T10:39:20;101878.03;;;9.13;54.85
71559;BME280;59382;43.852;25.952;2024-03-08T10:41:58;101848.81;;;8.94;54.71
71559;BME280;59382;43.852;25.952;2024-03-08T10:47:03;101889.50;;;9.07;54.97
71559;BME280;59382;43.852;25.952;2024-03-08T10:49:55;101884.28;;;9.06;54.88
71559;BME280;59382;43.852;25.952;2024-03-08T10:52:29;101875.00;;;9.08;55.02
71559;BME280;59382;43.852;25.952;2024-03-08T10:54:56;101869.09;;;9.13;54.97
71559;BME280;59382;43.852;25.952;2024-03-08T10:57:22;101864.56;;;9.13;54.67
71559;BME280;59382;43.852;25.952;2024-03-08T10:59:49;101870.44;;;9.17;54.58
71559;BME280;59382;43.852;25.952;2024-03-08T11:02:17;101856.66;;;9.12;54.82
71559;BME280;59382;43.852;25.952;2024-03-08T11:04:47;101839.84;;;9.02;55.00
71559;BME280;59382;43.852;25.952;2024-03-08T11:07:15;101864.06;;;9.10;55.03
71559;BME280;59382;43.852;25.952;2024-03-08T11:09:47;101861.88;;;9.13;55.13
71559;BME280;59382;43.852;25.952;2024-03-08T11:12:27;101859.66;;;9.17;54.91
71559;BME280;59382;43.852;25.952;2024-03-08T11:15:10;101858.50;;;9.19;54.93
71559;BME280;59382;43.852;25.952;2024-03-08T11:20:10;101843.69;;;9.15;55.00
71559;BME280;59382;43.852;25.952;2024-03-08T11:23:03;101850.75;;;9.16;54.71
71559;BME280;59382;43.852;25.952;2024-03-08T11:25:36;101856.09;;;9.24;54.88
71559;BME280;59382;43.852;25.952;2024-03-08T11:30:44;101846.31;;;9.31;54.63
71559;BME280;59382;43.852;25.952;2024-03-08T11:33:13;101832.56;;;9.18;54.91
71559;BME280;59382;43.852;25.952;2024-03-08T11:35:41;101842.97;;;9.21;54.76
71559;BME280;59382;43.852;25.952;2024-03-08T11:38:08;101833.09;;;9.14;54.58
71559;BME280;59382;43.852;25.952;2024-03-08T11:40:35;101858.16;;;9.22;54.42
71559;BME280;59382;43.852;25.952;2024-03-08T11:43:01;101845.66;;;9.21;54.86
71559;BME280;59382;43.852;25.952;2024-03-08T11:45:29;101850.72;;;9.24;54.76
71559;BME280;59382;43.852;25.952;2024-03-08T11:47:55;101818.75;;;9.21;54.77
71559;BME280;59382;43.852;25.952;2024-03-08T11:50:20;101843.91;;;9.36;54.53
71559;BME280;59382;43.852;25.952;2024-03-08T11:52:50;101833.16;;;9.36;54.71
71559;BME280;59382;43.852;25.952;2024-03-08T11:55:16;101839.03;;;9.40;54.45
71559;BME280;59382;43.852;25.952;2024-03-08T11:57:44;101812.13;;;9.32;54.30
71559;BME280;59382;43.852;25.952;2024-03-08T12:00:18;101838.16;;;9.47;54.55
71559;BME280;59382;43.852;25.952;2024-03-08T12:03:06;101836.75;;;9.51;54.47
71559;BME280;59382;43.852;25.952;2024-03-08T12:05:32;101831.03;;;9.54;54.55
71559;BME280;59382;43.852;25.952;2024-03-08T12:08:04;101830.31;;;9.60;54.55
71559;BME280;59382;43.852;25.952;2024-03-08T12:10:33;101823.25;;;9.59;54.18
71559;BME280;59382;43.852;25.952;2024-03-08T12:13:00;101814.91;;;9.69;54.49
71559;BME280;59382;43.852;25.952;2024-03-08T12:15:26;101818.59;;;9.76;54.05
71559;BME280;59382;43.852;25.952;2024-03-08T12:17:53;101817.84;;;9.82;54.06
71559;BME280;59382;43.852;25.952;2024-03-08T12:20:25;101823.38;;;9.88;53.96
71559;BME280;59382;43.852;25.952;2024-03-08T12:22:54;101810.44;;;9.84;53.97
71559;BME280;59382;43.852;25.952;2024-03-08T12:25:33;101813.25;;;9.90;53.85
71559;BME280;59382;43.852;25.952;2024-03-08T12:28:09;101829.34;;;9.98;53.64
71559;BME280;59382;43.852;25.952;2024-03-08T12:30:56;101807.88;;;9.90;53.98
71559;BME280;59382;43.852;25.952;2024-03-08T12:33:24;101807.50;;;9.93;53.73
71559;BME280;59382;43.852;25.952;2024-03-08T12:35:54;101821.56;;;10.03;53.70
71559;BME280;59382;43.852;25.952;2024-03-08T12:38:21;101819.25;;;10.00;53.82
71559;BME280;59382;43.852;25.952;2024-03-08T12:40:58;101797.72;;;9.92;54.13
71559;BME280;59382;43.852;25.952;2024-03-08T12:43:24;101813.16;;;10.07;54.05
71559;BME280;59382;43.852;25.952;2024-03-08T12:45:50;101813.81;;;10.09;54.02
71559;BME280;59382;43.852;25.952;2024-03-08T12:48:15;101808.06;;;10.12;53.67
71559;BME280;59382;43.852;25.952;2024-03-08T12:50:41;101810.22;;;10.16;53.64
71559;BME280;59382;43.852;25.952;2024-03-08T12:53:10;101809.00;;;10.19;53.82
71559;BME280;59382;43.852;25.952;2024-03-08T12:55:36;101795.88;;;10.16;53.88
71559;BME280;59382;43.852;25.952;2024-03-08T12:58:02;101808.53;;;10.30;53.83
71559;BME280;59382;43.852;25.952;2024-03-08T13:00:28;101804.47;;;10.34;53.63